Time;durP1;ratioP1;P1;durP2;ratioP2;P2;SDS_P1;SDS_P2;PMS_P1;PMS_P2;Temp;Humidity;BMP_temperature;BMP_pressure;BME280_temperature;BME280_humidity;BME280_pressure;Samples;Min_cycle;Max_cycle;Signal;HPM_P1;HPM_P2
2023/03/25 00:00:56;;;;;;;78.82;11.30;;;;;;;;;;4871552;29;20137;-48
2023/03/25 00:03:25;;;;;;;49.67;9.00;;;;;;;;;;4875389;29;20506;-51
2023/03/25 00:05:52;;;;;;;56.58;9.85;;;;;;;;;;4875914;29;20067;-49
2023/03/25 00:08:19;;;;;;;60.03;11.18;;;;;;;;;;4875010;29;20052;-49
2023/03/25 00:10:50;;;;;;;36.90;9.32;;;;;;;;;;4875538;29;20049;-68
2023/03/25 00:13:16;;;;;;;51.67;10.18;;;;;;;;;;4873335;29;20068;-69
2023/03/25 00:15:46;;;;;;;73.00;10.82;;;;;;;;;;4875289;29;20103;-69
2023/03/25 00:18:16;;;;;;;56.80;10.45;;;;;;;;;;4874318;29;20096;-73
2023/03/25 00:20:44;;;;;;;60.40;10.13;;;;;;;;;;4875429;29;20055;-70
2023/03/25 00:23:11;;;;;;;68.78;10.68;;;;;;;;;;4877158;29;20048;-70
2023/03/25 00:25:38;;;;;;;66.53;10.82;;;;;;;;;;4874379;29;20041;-70
2023/03/25 00:28:04;;;;;;;72.18;11.18;;;;;;;;;;4874764;29;20045;-69
2023/03/25 00:30:31;;;;;;;66.00;10.70;;;;;;;;;;4874825;29;20045;-69
2023/03/25 00:33:00;;;;;;;58.53;9.85;;;;;;;;;;4875355;29;20049;-70
2023/03/25 00:35:27;;;;;;;67.30;10.63;;;;;;;;;;4874379;29;20063;-70
2023/03/25 00:37:59;;;;;;;59.80;10.77;;;;;;;;;;4873109;29;20104;-69
2023/03/25 00:40:33;;;;;;;49.70;10.10;;;;;;;;;;4874573;29;20533;-69
2023/03/25 00:43:00;;;;;;;64.97;10.50;;;;;;;;;;4888876;29;20048;-70
2023/03/25 00:45:27;;;;;;;53.40;10.07;;;;;;;;;;4874028;29;20048;-70
2023/03/25 00:47:54;;;;;;;56.60;9.90;;;;;;;;;;4885517;29;20669;-70
2023/03/25 00:50:21;;;;;;;68.60;11.43;;;;;;;;;;4874470;29;20048;-70
2023/03/25 00:52:48;;;;;;;40.10;9.57;;;;;;;;;;4874395;29;20106;-70
2023/03/25 00:55:14;;;;;;;74.20;11.27;;;;;;;;;;4874008;29;20045;-70
2023/03/25 00:57:41;;;;;;;65.32;10.93;;;;;;;;;;4873280;29;20060;-70
2023/03/25 01:00:09;;;;;;;93.60;12.85;;;;;;;;;;4874862;29;20052;-70
2023/03/25 01:02:38;;;;;;;77.07;12.48;;;;;;;;;;4874163;29;20067;-69
2023/03/25 01:05:05;;;;;;;74.85;12.02;;;;;;;;;;4873853;29;20056;-69
2023/03/25 01:07:31;;;;;;;48.42;9.52;;;;;;;;;;4904262;29;20045;-68
2023/03/25 01:09:58;;;;;;;68.97;11.50;;;;;;;;;;4870085;29;20048;-68
2023/03/25 01:12:25;;;;;;;57.28;9.90;;;;;;;;;;4874945;29;20422;-68
2023/03/25 01:14:53;;;;;;;38.13;9.45;;;;;;;;;;4872754;29;20037;-68
2023/03/25 01:17:19;;;;;;;60.08;10.32;;;;;;;;;;4888132;29;20053;-67
2023/03/25 01:19:46;;;;;;;72.18;11.75;;;;;;;;;;4873671;29;20053;-67
2023/03/25 01:22:12;;;;;;;46.72;10.55;;;;;;;;;;4888409;29;20068;-67
2023/03/25 01:24:40;;;;;;;75.80;11.57;;;;;;;;;;4875168;29;20052;-67
2023/03/25 01:27:06;;;;;;;86.63;13.05;;;;;;;;;;4873774;29;20041;-67
2023/03/25 01:29:33;;;;;;;47.35;11.27;;;;;;;;;;4887552;29;20105;-49
2023/03/25 01:31:59;;;;;;;86.13;12.80;;;;;;;;;;4885136;29;20105;-50
2023/03/25 01:34:30;;;;;;;51.20;10.77;;;;;;;;;;4888147;29;20053;-52
2023/03/25 01:36:59;;;;;;;40.80;10.25;;;;;;;;;;4887695;29;20135;-49
2023/03/25 01:39:26;;;;;;;63.78;11.75;;;;;;;;;;4887617;29;20083;-50
2023/03/25 01:41:53;;;;;;;76.78;13.98;;;;;;;;;;4875061;29;20060;-48
2023/03/25 01:44:20;;;;;;;58.45;11.57;;;;;;;;;;4874182;29;20796;-49
2023/03/25 01:46:51;;;;;;;73.55;13.63;;;;;;;;;;4872589;29;20494;-52
2023/03/25 01:49:49;;;;;;;84.65;13.80;;;;;;;;;;4869701;29;20045;-50
2023/03/25 01:52:20;;;;;;;58.72;11.85;;;;;;;;;;4875818;29;20048;-48
2023/03/25 01:54:49;;;;;;;37.83;11.40;;;;;;;;;;4873474;29;20522;-48
2023/03/25 01:57:18;;;;;;;89.38;14.45;;;;;;;;;;4887436;29;20053;-48
2023/03/25 01:59:45;;;;;;;60.75;12.38;;;;;;;;;;4874274;29;20314;-48
2023/03/25 02:02:14;;;;;;;58.20;12.60;;;;;;;;;;4873505;29;20041;-49
2023/03/25 02:04:57;;;;;;;73.85;13.18;;;;;;;;;;4887420;29;20059;-48
2023/03/25 02:07:32;;;;;;;54.53;12.52;;;;;;;;;;4873064;29;20586;-47
2023/03/25 02:10:00;;;;;;;57.85;13.57;;;;;;;;;;4870375;29;20061;-48
2023/03/25 02:12:27;;;;;;;80.50;13.40;;;;;;;;;;4873624;29;20037;-47
2023/03/25 02:14:56;;;;;;;54.35;12.90;;;;;;;;;;4874495;29;20045;-50
2023/03/25 02:17:37;;;;;;;68.00;13.80;;;;;;;;;;4873645;29;20395;-48
2023/03/25 02:20:22;;;;;;;55.25;12.43;;;;;;;;;;4871239;29;20529;-49
2023/03/25 02:23:08;;;;;;;50.35;11.75;;;;;;;;;;4873617;29;20049;-49
2023/03/25 02:26:02;;;;;;;69.43;14.18;;;;;;;;;;4886179;29;20502;-48
2023/03/25 02:28:38;;;;;;;48.95;13.18;;;;;;;;;;4872364;29;20494;-48
2023/03/25 02:31:28;;;;;;;64.10;14.15;;;;;;;;;;4869115;29;20052;-49
2023/03/25 02:34:00;;;;;;;59.92;13.63;;;;;;;;;;4884244;29;20406;-50
2023/03/25 02:36:33;;;;;;;61.92;13.48;;;;;;;;;;4870822;29;20037;-49
2023/03/25 02:39:02;;;;;;;72.55;14.63;;;;;;;;;;4903289;29;20123;-48
2023/03/25 02:41:49;;;;;;;85.85;15.77;;;;;;;;;;4902917;29;20049;-50
2023/03/25 02:44:30;;;;;;;46.67;12.95;;;;;;;;;;4833763;29;20053;-49
2023/03/25 02:47:00;;;;;;;72.90;15.05;;;;;;;;;;4815378;29;20057;-49
2023/03/25 02:49:29;;;;;;;66.82;14.57;;;;;;;;;;4848560;29;20546;-51
2023/03/25 02:52:16;;;;;;;58.25;14.68;;;;;;;;;;4817726;29;20050;-48
2023/03/25 02:54:46;;;;;;;60.47;13.82;;;;;;;;;;4831555;29;20057;-49
2023/03/25 02:57:14;;;;;;;105.90;16.15;;;;;;;;;;4817772;29;20054;-49
2023/03/25 02:59:42;;;;;;;75.57;14.73;;;;;;;;;;4818898;29;20057;-53
2023/03/25 03:02:10;;;;;;;73.43;15.63;;;;;;;;;;4833534;29;20058;-51
2023/03/25 03:04:44;;;;;;;77.60;14.98;;;;;;;;;;4817365;29;20098;-48
2023/03/25 03:07:15;;;;;;;91.95;17.02;;;;;;;;;;4832760;29;20472;-48
2023/03/25 03:09:47;;;;;;;77.93;15.70;;;;;;;;;;4850174;29;20054;-49
2023/03/25 03:12:19;;;;;;;108.82;17.67;;;;;;;;;;4835349;29;20045;-51
2023/03/25 03:15:05;;;;;;;75.95;15.30;;;;;;;;;;4837269;29;20065;-48
2023/03/25 03:17:45;;;;;;;101.15;18.27;;;;;;;;;;4817970;29;20153;-50
2023/03/25 03:20:18;;;;;;;66.55;15.10;;;;;;;;;;4820403;29;20082;-49
2023/03/25 03:22:51;;;;;;;152.20;22.23;;;;;;;;;;4853112;29;20065;-69
2023/03/25 03:25:18;;;;;;;;;;;;;;;;;;4854696;29;20105;-70
2023/03/25 03:27:48;;;;;;;64.07;15.15;;;;;;;;;;4854682;29;20340;-69
2023/03/25 03:30:19;;;;;;;120.95;20.38;;;;;;;;;;4854885;29;20053;-68
2023/03/25 03:32:53;;;;;;;58.92;14.93;;;;;;;;;;4856324;29;20653;-69
2023/03/25 03:35:21;;;;;;;73.95;17.83;;;;;;;;;;4854453;29;20193;-69
2023/03/25 03:37:51;;;;;;;69.30;16.65;;;;;;;;;;4854359;29;20422;-69
2023/03/25 03:40:19;;;;;;;72.50;16.80;;;;;;;;;;4854433;29;20132;-69
2023/03/25 03:42:45;;;;;;;63.35;17.08;;;;;;;;;;4854545;29;20064;-69
2023/03/25 03:45:18;;;;;;;82.55;17.98;;;;;;;;;;4853847;29;20161;-69
2023/03/25 03:47:50;;;;;;;66.82;16.50;;;;;;;;;;4854942;29;20069;-70
2023/03/25 03:50:19;;;;;;;90.97;18.20;;;;;;;;;;4854045;29;20050;-69
2023/03/25 03:52:49;;;;;;;57.38;15.38;;;;;;;;;;4853890;29;20079;-70
2023/03/25 03:55:28;;;;;;;69.85;17.55;;;;;;;;;;4869343;29;20516;-69
2023/03/25 03:57:57;;;;;;;61.13;15.50;;;;;;;;;;4873234;29;20136;-69
2023/03/25 04:00:26;;;;;;;71.68;16.83;;;;;;;;;;4875632;29;20053;-70
2023/03/25 04:03:03;;;;;;;81.45;18.48;;;;;;;;;;4889154;29;20057;-69
2023/03/25 04:05:31;;;;;;;83.47;17.33;;;;;;;;;;4888865;29;20045;-69
2023/03/25 04:08:03;;;;;;;57.22;16.50;;;;;;;;;;4875684;29;20045;-69
2023/03/25 04:10:33;;;;;;;67.30;17.83;;;;;;;;;;4875264;29;20598;-69
2023/03/25 04:13:02;;;;;;;80.00;18.90;;;;;;;;;;4875214;29;20494;-69
2023/03/25 04:15:29;;;;;;;120.38;21.67;;;;;;;;;;4874735;29;20037;-69
2023/03/25 04:17:56;;;;;;;50.38;17.35;;;;;;;;;;4872553;29;20045;-69
2023/03/25 04:20:24;;;;;;;63.08;17.23;;;;;;;;;;4875156;29;20049;-69
2023/03/25 04:22:51;;;;;;;97.63;21.17;;;;;;;;;;4875639;29;20080;-70
2023/03/25 04:25:20;;;;;;;70.75;18.10;;;;;;;;;;4891700;29;20044;-70
2023/03/25 04:27:57;;;;;;;89.70;20.50;;;;;;;;;;4874218;29;20161;-70
2023/03/25 04:30:25;;;;;;;68.80;18.15;;;;;;;;;;4874877;29;20053;-70
2023/03/25 04:32:51;;;;;;;77.47;19.98;;;;;;;;;;4875355;29;20502;-69
2023/03/25 04:35:18;;;;;;;75.07;19.52;;;;;;;;;;4874378;29;20067;-69
2023/03/25 04:37:45;;;;;;;78.35;20.52;;;;;;;;;;4874819;29;20087;-70
2023/03/25 04:40:15;;;;;;;73.30;19.13;;;;;;;;;;4874301;29;20049;-69
2023/03/25 04:42:42;;;;;;;64.95;17.10;;;;;;;;;;4874626;29;20049;-69
2023/03/25 04:45:15;;;;;;;100.32;21.25;;;;;;;;;;4874605;29;20065;-69
2023/03/25 04:47:45;;;;;;;78.03;20.00;;;;;;;;;;4873526;29;20055;-69
2023/03/25 04:50:20;;;;;;;80.95;19.90;;;;;;;;;;4873971;29;20049;-69
2023/03/25 04:52:48;;;;;;;68.78;18.08;;;;;;;;;;4874130;29;20410;-69
2023/03/25 04:55:16;;;;;;;76.53;19.33;;;;;;;;;;4874389;29;20040;-70
2023/03/25 04:57:44;;;;;;;105.15;20.63;;;;;;;;;;4870835;29;20048;-69
2023/03/25 05:00:12;;;;;;;90.70;18.83;;;;;;;;;;4874071;29;20041;-69
2023/03/25 05:02:44;;;;;;;71.72;18.90;;;;;;;;;;4872763;29;20045;-69
2023/03/25 05:05:17;;;;;;;62.53;17.70;;;;;;;;;;4873757;29;20057;-70
2023/03/25 05:07:45;;;;;;;64.75;17.63;;;;;;;;;;4874049;29;20045;-70
2023/03/25 05:10:12;;;;;;;96.28;18.48;;;;;;;;;;4870533;29;20049;-70
2023/03/25 05:12:39;;;;;;;58.65;15.77;;;;;;;;;;4874853;29;20141;-70
2023/03/25 05:15:06;;;;;;;86.85;19.02;;;;;;;;;;4874186;29;20050;-70
2023/03/25 05:17:33;;;;;;;92.05;19.25;;;;;;;;;;4873532;29;20057;-69
2023/03/25 05:19:59;;;;;;;78.53;16.40;;;;;;;;;;4873505;29;20053;-69
2023/03/25 05:22:26;;;;;;;85.47;19.02;;;;;;;;;;4873732;29;20049;-69
2023/03/25 05:24:53;;;;;;;73.68;16.48;;;;;;;;;;4874073;29;20045;-69
2023/03/25 05:27:19;;;;;;;70.00;16.92;;;;;;;;;;4873165;29;20057;-69
2023/03/25 05:29:46;;;;;;;67.90;16.55;;;;;;;;;;4874604;29;20037;-69
2023/03/25 05:32:16;;;;;;;79.10;17.73;;;;;;;;;;4872928;29;20037;-69
2023/03/25 05:34:45;;;;;;;60.33;16.70;;;;;;;;;;4870562;29;20080;-69
2023/03/25 05:37:12;;;;;;;78.43;18.00;;;;;;;;;;4887563;29;20063;-65
2023/03/25 05:39:39;;;;;;;91.85;20.25;;;;;;;;;;4873457;29;20119;-64
2023/03/25 05:42:06;;;;;;;84.22;19.13;;;;;;;;;;4873529;29;20057;-65
2023/03/25 05:44:32;;;;;;;69.40;17.20;;;;;;;;;;4874467;29;20053;-65
2023/03/25 05:47:02;;;;;;;109.53;20.90;;;;;;;;;;4871606;29;20045;-49
2023/03/25 05:49:28;;;;;;;92.95;20.13;;;;;;;;;;4902094;29;20426;-49
2023/03/25 05:51:55;;;;;;;66.60;19.88;;;;;;;;;;4870843;29;20048;-49
2023/03/25 05:54:23;;;;;;;89.68;21.88;;;;;;;;;;4873871;29;23470;-49
2023/03/25 05:56:49;;;;;;;52.50;18.52;;;;;;;;;;4874834;29;20056;-50
2023/03/25 05:59:16;;;;;;;93.40;20.85;;;;;;;;;;4873128;29;20056;-50
2023/03/25 06:01:44;;;;;;;80.55;19.92;;;;;;;;;;4873772;29;20469;-49
2023/03/25 06:04:11;;;;;;;77.07;19.42;;;;;;;;;;4873588;29;20069;-50
2023/03/25 06:06:39;;;;;;;65.85;19.27;;;;;;;;;;4873532;29;20041;-50
2023/03/25 06:09:06;;;;;;;98.07;19.80;;;;;;;;;;4874051;29;20045;-49
2023/03/25 06:11:36;;;;;;;81.10;20.98;;;;;;;;;;4873879;29;20048;-49
2023/03/25 06:14:04;;;;;;;76.28;19.92;;;;;;;;;;4873537;29;20119;-52
2023/03/25 06:16:31;;;;;;;83.80;21.48;;;;;;;;;;4873418;29;20041;-50
2023/03/25 06:18:59;;;;;;;74.47;20.45;;;;;;;;;;4873633;29;20048;-51
2023/03/25 06:21:27;;;;;;;70.20;20.20;;;;;;;;;;4872642;29;20140;-50
2023/03/25 06:23:53;;;;;;;93.05;21.02;;;;;;;;;;4873787;29;20411;-49
2023/03/25 06:26:21;;;;;;;73.03;20.17;;;;;;;;;;4873222;29;20049;-49
2023/03/25 06:28:47;;;;;;;45.83;16.83;;;;;;;;;;4873197;29;20418;-53
2023/03/25 06:31:17;;;;;;;87.47;19.23;;;;;;;;;;4869969;29;20069;-52
2023/03/25 06:33:44;;;;;;;66.25;17.60;;;;;;;;;;4873433;29;20128;-50
2023/03/25 06:36:11;;;;;;;95.40;19.42;;;;;;;;;;4873638;29;20045;-52
2023/03/25 06:38:38;;;;;;;69.82;18.35;;;;;;;;;;4874339;29;20513;-49
2023/03/25 06:41:10;;;;;;;68.72;17.88;;;;;;;;;;4887430;29;20202;-48
2023/03/25 06:43:37;;;;;;;51.90;15.57;;;;;;;;;;4887778;29;20437;-52
2023/03/25 06:46:24;;;;;;;43.08;13.98;;;;;;;;;;4875528;29;20064;-52
2023/03/25 06:49:09;;;;;;;78.30;17.02;;;;;;;;;;4874872;29;20047;-49
2023/03/25 06:51:35;;;;;;;85.03;18.02;;;;;;;;;;4876322;29;20055;-49
2023/03/25 06:54:02;;;;;;;103.00;18.77;;;;;;;;;;4876751;29;20154;-64
2023/03/25 06:56:28;;;;;;;75.65;15.80;;;;;;;;;;4875556;29;20083;-65
2023/03/25 06:58:55;;;;;;;61.90;16.13;;;;;;;;;;4877146;29;20064;-65
2023/03/25 07:01:21;;;;;;;66.43;14.43;;;;;;;;;;4876587;29;20048;-65
2023/03/25 07:03:48;;;;;;;81.07;16.17;;;;;;;;;;4876647;29;20152;-65
2023/03/25 07:06:19;;;;;;;64.55;14.02;;;;;;;;;;4877125;29;20048;-64
2023/03/25 07:08:46;;;;;;;50.42;14.82;;;;;;;;;;4877526;29;20590;-64
2023/03/25 07:11:13;;;;;;;133.10;18.83;;;;;;;;;;4875343;29;20045;-64
2023/03/25 07:13:40;;;;;;;67.78;15.07;;;;;;;;;;4874061;29;20040;-64
2023/03/25 07:16:07;;;;;;;57.55;14.07;;;;;;;;;;4876359;29;20053;-65
2023/03/25 07:18:33;;;;;;;82.65;15.65;;;;;;;;;;4876073;29;20064;-64
2023/03/25 07:21:00;;;;;;;60.25;14.45;;;;;;;;;;4876752;29;20315;-65
2023/03/25 07:23:26;;;;;;;77.63;15.35;;;;;;;;;;4878240;29;20064;-65
2023/03/25 07:25:54;;;;;;;63.22;13.73;;;;;;;;;;4886110;29;20057;-64
2023/03/25 07:28:20;;;;;;;44.25;12.10;;;;;;;;;;4889721;29;20040;-64
2023/03/25 07:30:47;;;;;;;53.78;13.32;;;;;;;;;;4876063;29;20400;-64
2023/03/25 07:33:13;;;;;;;131.15;18.80;;;;;;;;;;4875996;29;20467;-64
2023/03/25 07:35:40;;;;;;;50.22;13.48;;;;;;;;;;4876288;29;20057;-64
2023/03/25 07:38:08;;;;;;;74.53;16.05;;;;;;;;;;4875900;29;20063;-65
2023/03/25 07:40:35;;;;;;;82.97;15.48;;;;;;;;;;4875217;29;20123;-64
2023/03/25 07:43:01;;;;;;;61.17;14.25;;;;;;;;;;4875698;29;20056;-64
2023/03/25 07:45:34;;;;;;;78.53;15.32;;;;;;;;;;4886665;29;20120;-64
2023/03/25 07:48:13;;;;;;;70.60;14.63;;;;;;;;;;4875797;29;20057;-64
2023/03/25 07:50:40;;;;;;;56.70;13.48;;;;;;;;;;4876023;29;20049;-65
2023/03/25 07:53:07;;;;;;;79.53;15.07;;;;;;;;;;4875134;29;20053;-65
2023/03/25 07:55:33;;;;;;;72.30;14.63;;;;;;;;;;4874639;29;20041;-51
2023/03/25 07:58:01;;;;;;;79.63;14.73;;;;;;;;;;4886365;29;20483;-52
2023/03/25 08:00:28;;;;;;;82.10;15.18;;;;;;;;;;4875027;29;20454;-49
2023/03/25 08:02:54;;;;;;;40.17;12.25;;;;;;;;;;4876508;29;20128;-48
2023/03/25 08:05:21;;;;;;;74.50;14.07;;;;;;;;;;4874730;29;20056;-49
2023/03/25 08:07:48;;;;;;;49.47;12.65;;;;;;;;;;4875298;29;20051;-53
2023/03/25 08:10:15;;;;;;;53.97;11.98;;;;;;;;;;4874660;29;20056;-51
2023/03/25 08:12:42;;;;;;;65.22;12.77;;;;;;;;;;4875511;29;20495;-50
2023/03/25 08:15:10;;;;;;;104.97;15.50;;;;;;;;;;4874477;29;20041;-53
2023/03/25 08:17:37;;;;;;;47.60;11.50;;;;;;;;;;4875866;29;20131;-50
2023/03/25 08:20:05;;;;;;;56.78;12.48;;;;;;;;;;4874125;29;20049;-50
2023/03/25 08:22:32;;;;;;;71.55;16.02;;;;;;;;;;4874617;29;20072;-52
2023/03/25 08:24:59;;;;;;;46.25;12.88;;;;;;;;;;4876693;29;20041;-49
2023/03/25 08:27:25;;;;;;;84.32;16.05;;;;;;;;;;4873897;29;20052;-49
2023/03/25 08:29:56;;;;;;;55.78;11.60;;;;;;;;;;4876198;29;20099;-51
2023/03/25 08:32:23;;;;;;;39.17;10.70;;;;;;;;;;4875649;29;20111;-48
2023/03/25 08:34:49;;;;;;;133.13;16.70;;;;;;;;;;4872874;29;20487;-51
2023/03/25 08:37:16;;;;;;;106.75;15.45;;;;;;;;;;4875491;29;20045;-48
2023/03/25 08:39:44;;;;;;;63.97;11.38;;;;;;;;;;4876627;29;20057;-48
2023/03/25 08:42:11;;;;;;;73.03;11.90;;;;;;;;;;4874796;29;20051;-48
2023/03/25 08:44:38;;;;;;;55.25;10.65;;;;;;;;;;4874793;29;20414;-49
2023/03/25 08:47:04;;;;;;;53.95;10.52;;;;;;;;;;4874048;29;20048;-49
2023/03/25 08:49:31;;;;;;;79.40;12.15;;;;;;;;;;4873685;29;20045;-50
2023/03/25 08:51:59;;;;;;;58.15;10.10;;;;;;;;;;4888248;29;20052;-53
2023/03/25 08:54:26;;;;;;;57.20;10.35;;;;;;;;;;4873727;29;20105;-48
2023/03/25 08:56:52;;;;;;;68.20;12.43;;;;;;;;;;4874834;29;20049;-51
2023/03/25 08:59:19;;;;;;;70.68;12.73;;;;;;;;;;4872274;29;20424;-64
2023/03/25 09:01:46;;;;;;;39.08;8.95;;;;;;;;;;4874877;29;20048;-64
2023/03/25 09:04:13;;;;;;;55.83;10.88;;;;;;;;;;4874418;29;20415;-59
2023/03/25 09:06:39;;;;;;;65.78;10.82;;;;;;;;;;4873489;29;20037;-61
2023/03/25 09:09:26;;;;;;;65.55;10.80;;;;;;;;;;4874344;29;20053;-62
2023/03/25 09:11:53;;;;;;;64.50;12.23;;;;;;;;;;4875282;29;20569;-61
2023/03/25 09:14:22;;;;;;;54.90;10.02;;;;;;;;;;4888646;29;20049;-61
2023/03/25 09:16:49;;;;;;;43.92;8.98;;;;;;;;;;4874337;29;20064;-62
2023/03/25 09:19:15;;;;;;;50.92;9.15;;;;;;;;;;4874175;29;20069;-63
2023/03/25 09:21:42;;;;;;;93.00;11.98;;;;;;;;;;4873649;29;20445;-67
2023/03/25 09:24:09;;;;;;;71.88;10.60;;;;;;;;;;4875103;29;20481;-64
2023/03/25 09:26:36;;;;;;;47.25;8.48;;;;;;;;;;4874023;29;20045;-64
2023/03/25 09:29:02;;;;;;;55.92;8.50;;;;;;;;;;4873089;29;20041;-64
2023/03/25 09:31:29;;;;;;;60.97;9.52;;;;;;;;;;4873675;29;20041;-65
2023/03/25 09:33:55;;;;;;;52.03;8.93;;;;;;;;;;4870677;29;20455;-64
2023/03/25 09:36:22;;;;;;;97.70;10.57;;;;;;;;;;4873361;29;20074;-64
2023/03/25 09:38:48;;;;;;;46.25;9.27;;;;;;;;;;4874753;29;20052;-64
2023/03/25 09:41:18;;;;;;;63.45;8.20;;;;;;;;;;4873667;29;20044;-66
2023/03/25 09:43:47;;;;;;;79.55;10.15;;;;;;;;;;4873902;29;20053;-65
2023/03/25 09:46:14;;;;;;;50.78;7.63;;;;;;;;;;4873771;29;20077;-65
2023/03/25 09:48:43;;;;;;;44.85;7.68;;;;;;;;;;4874131;29;20097;-61
2023/03/25 09:51:16;;;;;;;105.45;12.18;;;;;;;;;;4873422;29;20037;-61
2023/03/25 09:54:06;;;;;;;55.03;7.30;;;;;;;;;;4874539;29;20057;-59
2023/03/25 09:56:35;;;;;;;50.78;6.70;;;;;;;;;;4834788;29;20145;-64
2023/03/25 09:59:13;;;;;;;65.38;8.35;;;;;;;;;;4834003;29;20115;-66
2023/03/25 10:01:47;;;;;;;51.05;6.72;;;;;;;;;;4834723;29;20058;-67
2023/03/25 10:04:32;;;;;;;51.50;7.45;;;;;;;;;;4833021;29;20097;-64
2023/03/25 10:07:01;;;;;;;39.88;6.18;;;;;;;;;;4834276;29;20045;-63
2023/03/25 10:09:34;;;;;;;65.72;8.35;;;;;;;;;;4833570;29;20122;-62
2023/03/25 10:12:35;;;;;;;60.03;8.20;;;;;;;;;;4835183;29;20058;-63
2023/03/25 10:15:20;;;;;;;76.95;9.32;;;;;;;;;;4816601;29;20067;-62
2023/03/25 10:17:53;;;;;;;52.92;8.35;;;;;;;;;;4817662;29;20520;-62
2023/03/25 10:20:38;;;;;;;62.97;8.38;;;;;;;;;;4818679;29;20059;-62
2023/03/25 10:23:17;;;;;;;59.47;9.55;;;;;;;;;;4820350;29;20058;-63
2023/03/25 10:25:45;;;;;;;68.07;8.48;;;;;;;;;;4815867;29;20062;-70
2023/03/25 10:28:17;;;;;;;60.15;7.45;;;;;;;;;;4818814;29;20528;-71
2023/03/25 10:30:49;;;;;;;45.90;6.90;;;;;;;;;;4819524;29;20063;-64
2023/03/25 10:33:22;;;;;;;76.78;8.85;;;;;;;;;;4828192;29;20598;-64
2023/03/25 10:35:48;;;;;;;64.73;7.83;;;;;;;;;;4856213;29;20475;-64
2023/03/25 10:38:20;;;;;;;63.42;7.60;;;;;;;;;;4855893;29;20054;-64
2023/03/25 10:40:51;;;;;;;43.72;6.28;;;;;;;;;;4855790;29;20160;-62
2023/03/25 10:43:24;;;;;;;47.67;6.10;;;;;;;;;;4855591;29;20152;-60
2023/03/25 10:45:54;;;;;;;74.32;8.50;;;;;;;;;;4852358;29;20128;-58
2023/03/25 10:48:23;;;;;;;75.53;9.23;;;;;;;;;;4859118;29;20084;-54
2023/03/25 10:50:51;;;;;;;61.08;7.57;;;;;;;;;;4877126;29;20053;-57
2023/03/25 10:53:20;;;;;;;66.50;8.00;;;;;;;;;;4876824;29;20056;-55
2023/03/25 10:55:52;;;;;;;36.80;6.43;;;;;;;;;;4876587;29;20136;-58
2023/03/25 10:58:18;;;;;;;60.85;7.85;;;;;;;;;;4873264;29;20052;-66
2023/03/25 11:00:46;;;;;;;89.85;9.93;;;;;;;;;;4876870;29;20397;-67
2023/03/25 11:03:16;;;;;;;72.80;8.07;;;;;;;;;;4876567;29;20118;-60
2023/03/25 11:05:44;;;;;;;55.58;7.38;;;;;;;;;;4876673;29;20049;-66
2023/03/25 11:08:11;;;;;;;44.10;6.45;;;;;;;;;;4876628;29;20049;-66
2023/03/25 11:10:54;;;;;;;46.38;7.35;;;;;;;;;;4873229;29;20052;-65
2023/03/25 11:13:28;;;;;;;70.18;8.15;;;;;;;;;;4876473;29;20049;-65
2023/03/25 11:15:59;;;;;;;32.05;5.40;;;;;;;;;;4876683;29;20044;-65
2023/03/25 11:18:28;;;;;;;73.38;9.00;;;;;;;;;;4875988;29;20117;-65
2023/03/25 11:21:06;;;;;;;71.05;8.32;;;;;;;;;;4874583;29;20048;-59
2023/03/25 11:23:33;;;;;;;92.65;10.18;;;;;;;;;;4874477;29;20128;-57
2023/03/25 11:26:03;;;;;;;47.28;6.45;;;;;;;;;;4875895;29;20049;-58
2023/03/25 11:28:34;;;;;;;49.97;6.47;;;;;;;;;;4872385;29;20041;-59
2023/03/25 11:31:05;;;;;;;56.00;7.55;;;;;;;;;;4875383;29;20053;-58
2023/03/25 11:33:32;;;;;;;106.13;10.40;;;;;;;;;;4874491;29;20060;-59
2023/03/25 11:36:09;;;;;;;63.90;8.27;;;;;;;;;;4875373;29;20049;-59
2023/03/25 11:38:37;;;;;;;59.97;7.32;;;;;;;;;;4874826;29;20048;-59
2023/03/25 11:41:04;;;;;;;51.05;6.80;;;;;;;;;;4874278;29;20076;-58
2023/03/25 11:43:34;;;;;;;103.00;9.95;;;;;;;;;;4873676;29;20056;-59
2023/03/25 11:46:12;;;;;;;62.25;7.57;;;;;;;;;;4874222;29;20037;-58
2023/03/25 11:48:40;;;;;;;57.03;7.30;;;;;;;;;;4871447;29;20057;-58
2023/03/25 11:51:14;;;;;;;85.35;9.95;;;;;;;;;;4875677;29;20049;-58
2023/03/25 11:53:45;;;;;;;55.45;7.72;;;;;;;;;;4876661;29;20391;-58
2023/03/25 11:56:15;;;;;;;60.08;7.63;;;;;;;;;;4875214;29;20051;-57
2023/03/25 11:58:41;;;;;;;66.72;7.95;;;;;;;;;;4875234;29;20048;-55
2023/03/25 12:01:26;;;;;;;58.83;7.40;;;;;;;;;;4875211;29;20048;-56
2023/03/25 12:04:25;;;;;;;46.60;5.82;;;;;;;;;;4875236;29;20474;-59
2023/03/25 12:06:59;;;;;;;37.65;4.90;;;;;;;;;;4850608;29;20069;-59
2023/03/25 12:09:27;;;;;;;65.47;6.85;;;;;;;;;;4853756;29;20104;-58
2023/03/25 12:12:06;;;;;;;57.40;6.10;;;;;;;;;;4855499;29;20041;-56
2023/03/25 12:14:32;;;;;;;56.83;5.32;;;;;;;;;;4854298;29;20057;-59
2023/03/25 12:17:10;;;;;;;30.80;3.83;;;;;;;;;;4853867;29;20060;-59
2023/03/25 12:19:48;;;;;;;81.53;6.95;;;;;;;;;;4853250;29;20086;-56
2023/03/25 12:22:33;;;;;;;61.47;5.53;;;;;;;;;;4850966;29;20149;-55
2023/03/25 12:25:06;;;;;;;66.15;5.75;;;;;;;;;;4856841;29;20128;-57
2023/03/25 12:27:37;;;;;;;72.32;6.78;;;;;;;;;;4853396;29;20101;-58
2023/03/25 12:30:22;;;;;;;41.45;4.22;;;;;;;;;;4854828;29;20080;-55
2023/03/25 12:33:04;;;;;;;40.20;3.70;;;;;;;;;;4854349;29;20056;-55
2023/03/25 12:35:42;;;;;;;73.00;7.22;;;;;;;;;;4852575;29;20092;-57
2023/03/25 12:38:21;;;;;;;66.25;5.70;;;;;;;;;;4850258;29;20497;-58
2023/03/25 12:40:53;;;;;;;56.92;5.32;;;;;;;;;;4852852;29;20057;-65
2023/03/25 12:43:41;;;;;;;57.53;5.63;;;;;;;;;;4865600;29;20081;-65
2023/03/25 12:46:24;;;;;;;46.22;4.57;;;;;;;;;;4874938;29;20041;-65
2023/03/25 12:49:00;;;;;;;48.53;4.97;;;;;;;;;;4873444;29;20128;-65
2023/03/25 12:51:32;;;;;;;77.18;6.63;;;;;;;;;;4874638;29;20057;-65
2023/03/25 12:53:59;;;;;;;51.65;4.68;;;;;;;;;;4875651;29;20053;-65
2023/03/25 12:56:33;;;;;;;37.25;4.10;;;;;;;;;;4875355;29;20049;-64
2023/03/25 12:59:11;;;;;;;41.80;5.47;;;;;;;;;;4874701;29;20072;-65
2023/03/25 13:01:47;;;;;;;30.75;4.82;;;;;;;;;;4871875;29;20045;-65
2023/03/25 13:04:30;;;;;;;34.20;4.70;;;;;;;;;;4874512;29;20827;-65
2023/03/25 13:07:00;;;;;;;53.25;6.38;;;;;;;;;;4886511;29;20053;-65
2023/03/25 13:09:33;;;;;;;83.47;8.73;;;;;;;;;;4874176;29;20045;-65
2023/03/25 13:12:02;;;;;;;61.50;5.60;;;;;;;;;;4875714;29;20135;-65
2023/03/25 13:14:54;;;;;;;50.15;5.00;;;;;;;;;;4874260;29;20048;-65
2023/03/25 13:17:25;;;;;;;40.38;5.10;;;;;;;;;;4869078;29;20722;-65
2023/03/25 13:19:55;;;;;;;74.25;6.65;;;;;;;;;;4874095;29;20090;-65
2023/03/25 13:22:23;;;;;;;67.38;6.10;;;;;;;;;;4874123;29;20052;-65
2023/03/25 13:24:52;;;;;;;45.13;5.32;;;;;;;;;;4877138;29;20076;-65
2023/03/25 13:27:19;;;;;;;75.72;7.32;;;;;;;;;;4873895;29;20068;-65
2023/03/25 13:29:47;;;;;;;88.43;7.63;;;;;;;;;;4874655;29;20056;-65
2023/03/25 13:32:16;;;;;;;53.42;5.90;;;;;;;;;;4871955;29;20136;-65
2023/03/25 13:34:48;;;;;;;43.88;5.45;;;;;;;;;;4873877;29;20144;-65
2023/03/25 13:37:28;;;;;;;77.82;7.55;;;;;;;;;;4873856;29;20041;-65
2023/03/25 13:39:54;;;;;;;37.85;4.70;;;;;;;;;;4870951;29;20119;-65
2023/03/25 13:42:36;;;;;;;73.00;6.80;;;;;;;;;;4874021;29;20101;-65
2023/03/25 13:45:04;;;;;;;53.83;5.95;;;;;;;;;;4874791;29;20550;-64
2023/03/25 13:47:32;;;;;;;99.00;9.25;;;;;;;;;;4875798;29;20053;-57
2023/03/25 13:50:02;;;;;;;62.30;6.05;;;;;;;;;;4869052;29;20041;-56
2023/03/25 13:52:33;;;;;;;39.95;5.22;;;;;;;;;;4873358;29;20048;-57
2023/03/25 13:55:03;;;;;;;63.50;6.40;;;;;;;;;;4873972;29;20064;-56
2023/03/25 13:57:38;;;;;;;82.00;9.13;;;;;;;;;;4873552;29;20056;-57
2023/03/25 14:00:23;;;;;;;43.72;5.43;;;;;;;;;;4871706;29;20558;-58
2023/03/25 14:02:53;;;;;;;70.82;8.57;;;;;;;;;;4874147;29;20498;-55
2023/03/25 14:05:34;;;;;;;66.63;8.43;;;;;;;;;;4871729;29;20479;-58
2023/03/25 14:08:11;;;;;;;72.70;14.57;;;;;;;;;;4873453;29;20045;-57
2023/03/25 14:10:38;;;;;;;94.00;16.02;;;;;;;;;;4870252;29;20136;-54
2023/03/25 14:13:11;;;;;;;62.97;7.43;;;;;;;;;;4873458;29;20041;-57
2023/03/25 14:15:40;;;;;;;37.80;5.70;;;;;;;;;;4874425;29;20045;-56
2023/03/25 14:18:14;;;;;;;56.80;6.65;;;;;;;;;;4874382;29;20049;-57
2023/03/25 14:20:40;;;;;;;40.47;5.32;;;;;;;;;;4872982;29;20123;-57
2023/03/25 14:23:11;;;;;;;63.47;6.38;;;;;;;;;;4875969;29;20052;-57
2023/03/25 14:25:39;;;;;;;61.33;6.95;;;;;;;;;;4872612;29;20128;-58
2023/03/25 14:28:07;;;;;;;58.22;6.88;;;;;;;;;;4873491;29;20045;-58
2023/03/25 14:30:34;;;;;;;58.47;6.35;;;;;;;;;;4873128;29;20049;-56
2023/03/25 14:33:04;;;;;;;72.53;8.13;;;;;;;;;;4874314;29;20076;-58
2023/03/25 14:35:34;;;;;;;61.40;7.13;;;;;;;;;;4873028;29;20090;-58
2023/03/25 14:38:06;;;;;;;62.83;7.30;;;;;;;;;;4873287;29;20053;-57
2023/03/25 14:40:36;;;;;;;44.45;6.03;;;;;;;;;;4872982;29;20049;-58